Kingsville, Canada
Current Conditions -  °F | °C
As of 9:00 AM on Saturday 25 Oct 2014 (Local Time) from CYQG Reporting Station
Haze Haze  
Wind Chill: 52°   Ceiling: Unl
Heat Index: 52°   Visibility: 6mi
Dew Point: 50°   Wind: 12mph
Humidity: 94%   Direction: 230°SW
Pressure: 29.83"   Gusts: NA
Location:  42.03°N, 82.75°W
Report Text: CYQG 251300Z 23010KT 6SM BR FEW045 SCT270 11/10 A2983 RMK SC2CC2 SLP101
Loading
Personal Weather Stations






























Interactive Weather Map
Tropical Storm Tracking
New forecast layout! Learn more

10-Day Weather Forecast

Advertisements
Track Severe Weather on mobile